sim
Sign-in with your pilot id or email,
or register
Callsign
Passwort

Schedule Details

Flight Number: DLH2342
Departure: Munich Airport (EDDM) at 11:10
Arrival: Graz Airport (LOWG) at 12:00
Route: Lufthansa Passenger Schedule. Enter filed route here before submitting Pirep.

Weather Information
Getting current METAR information for EDDM 262120Z 24018KT 9999 OVC023 07/04 Q1001 NOSIG
Getting current METAR information for LOWG 262120Z AUTO 24003KT 190V290 9999 NCD 05/02 Q1002 NOSIG

Schedule Frequency

Route Map